Home > Products > Valid Products > TAF

000
FTUS45 KMSO 261730
TAFMSO
TAF
KMSO 261730Z 2618/2718 00000KT 3SM -RA BR OVC050
     FM262300 06002KT 5SM -RA BR OVC050
     FM270700 12002KT 6SM BR OVC050=



000
FTUS45 KMSO 261730
TAFGPI
TAF
KGPI 261730Z 2618/2718 00000KT 1/2SM -SN FG FEW002 BKN025 OVC040
     FM261900 00000KT 1/2SM SN FG OVC007
     FM270100 00000KT 1 1/2SM -SN BR OVC015
     FM270900 18003KT 4SM -RA BR OVC025=



000
FTUS45 KMSO 261730
TAFSMN
TAF
KSMN 261730Z 2618/2718 00000KT 1/2SM FG BKN002
     FM262000 VRB05KT P6SM VCFG BKN020 OVC180
     FM262200 VRB05KT P6SM SCT020 BKN100
     FM270300 00000KT 1SM BR SCT100
      AMD LTD TO CLD VIS AND WIND=



000
FTUS45 KMSO 261730
TAFBTM
TAF
KBTM 261730Z 2618/2718 28004KT P6SM OVC070
     FM270200 22005KT P6SM OVC100
     FM271500 24007KT P6SM BKN250=



000
FTUS45 KMSO 261608 AAB
TAFMSO
TAF AMD
KMSO 261608Z 2616/2712 VRB04KT 1SM -SN BR SCT025 OVC040
     FM261800 VRB04KT P6SM VCSH SCT020 BKN060
     FM262000 VRB03KT P6SM SCT060 OVC120=



000
FTUS45 KMSO 261501 AAA
TAFBTM
TAF AMD
KBTM 261501Z 2615/2712 29005KT P6SM VCSH BKN050 BKN100
     FM261700 28010KT P6SM OVC030
     FM270400 15007KT P6SM FEW030 SCT100=



000
FTUS45 KMSO 261459 AAA
TAFMSO
TAF AMD
KMSO 261459Z 2615/2712 VRB04KT 3SM -SN BR SCT025 OVC040
     FM261600 VRB04KT P6SM VCSH SCT020 BKN060
     FM261800 VRB03KT P6SM SCT060 OVC120=



000
FTUS45 KMSO 261140
TAFGPI
TAF
KGPI 261140Z 2612/2712 00000KT 3/4SM -SN BR BKN003 OVC020
     FM261600 00000KT 1SM -SN BR BKN010
     FM262000 18003KT 5SM -RASN SCT010 OVC020
     FM262200 16003KT P6SM VCSH SCT010 BKN030=



000
FTUS45 KMSO 261140
TAFMSO
TAF
KMSO 261140Z 2612/2712 VRB04KT 1SM -SN BR BKN025 OVC040
     FM261600 VRB04KT P6SM VCSH SCT020 BKN060
     FM261800 VRB03KT P6SM SCT060 OVC120=



000
FTUS45 KMSO 261140
TAFSMN
TAF
KSMN 261140Z 2612/2712 00000KT 1/4SM FG OVC002
     FM261800 VRB05KT P6SM VCFG BKN020 OVC180
     FM262000 VRB05KT P6SM SCT020 BKN100
     FM270300 00000KT 1SM BR SCT100
      AMD LTD TO CLD VIS AND WIND=



000
FTUS45 KMSO 261140
TAFBTM
TAF
KBTM 261140Z 2612/2712 30005KT 3SM -SN BKN020 OVC030
     FM261500 29005KT P6SM VCSH BKN030 BKN100
     FM261700 28010KT P6SM OVC030
     FM270400 15007KT P6SM FEW030 SCT100=



000
FTUS45 KMSO 260950 AAA
TAFSMN
TAF AMD
KSMN 260950Z 2610/2706 00000KT 3/4SM BR OVC003
     FM261700 VRB05KT P6SM VCFG BKN020 OVC180
     FM261900 VRB05KT P6SM SCT020 BKN180
      AMD LTD TO CLD VIS AND WIND=



000
FTUS45 KMSO 260907 AAA
TAFGPI
TAF AMD
KGPI 260907Z 2609/2706 00000KT 3/4SM -SN BR BKN003 OVC010
     FM261600 00000KT 1SM -SN BR BKN010
     FM262000 18003KT 5SM -RASN SCT010 OVC020
     FM270300 18003KT P6SM VCSH OVC030=



000
FTUS45 KMSO 260542 AAA
TAFBTM
TAF AMD
KBTM 260542Z 2606/2706 30008KT 2SM -SN BR FEW010 OVC015
     FM261200 30005KT 5SM -RASN BKN020 OVC050
     FM261500 29010KT P6SM SCT100 BKN150=



000
FTUS45 KMSO 260537
TAFBTM
TAF
KBTM 260537Z 2606/2706 30008KT 2SM -SN BR VV012
     FM261200 30005KT 5SM -RASN BKN020 OVC050
     FM261500 29010KT P6SM BKN150=



000
FTUS45 KMSO 260537
TAFMSO
TAF
KMSO 260537Z 2606/2706 30003KT 2SM -SN BR SCT005 BKN010 OVC015
     FM261300 VRB04KT 3SM -RASN BR SCT003 OVC020
     FM261700 VRB04KT P6SM VCSH SCT060 OVC110=



000
FTUS45 KMSO 260537
TAFGPI
TAF
KGPI 260537Z 2606/2706 VRB03KT 2SM -SN BR SCT005 BKN015 OVC050
     FM262000 18003KT 5SM -RASN SCT010 OVC020
     FM270300 18003KT P6SM VCSH OVC030=



000
FTUS45 KMSO 260537
TAFSMN
TAF
KSMN 260537Z 2606/2706 VRB03KT 2SM -RASN BR OVC005
     FM260700 VRB05KT P6SM VCSH BKN010
     FM261800 VRB05KT P6SM BKN020 OVC180
      AMD LTD TO CLD VIS AND WIND=



000
FTUS45 KMSO 260317 AAC
TAFMSO
TAF AMD
KMSO 260317Z 2603/2624 32005KT 2SM -SN BR BKN010 OVC015
      TEMPO 2603/2606 1SM -SN BKN005
     FM261400 VRB04KT 3SM -RASN BR SCT003 OVC020
     FM261800 VRB04KT P6SM -RA BKN020 OVC040=



000
FTUS45 KMSO 260304 AAB
TAFMSO
TAF AMD
KMSO 260304Z 2603/2624 32005KT 2SM -SN BR FEW011 OVC015
     FM261400 VRB04KT 3SM -RASN BR SCT003 OVC020
     FM261800 VRB04KT P6SM -RA BKN020 OVC040=



000
FTUS45 KMSO 260210 AAA
TAFSMN
TAF AMD
KSMN 260210Z 2602/2624 35008KT 2SM -RA BR OVC005
      AMD LTD TO CLD VIS AND WIND=



000
FTUS45 KMSO 260210 AAA
TAFGPI
TAF AMD
KGPI 260210Z 2602/2624 17009KT 1/2SM FZFG VCSH BKN002 OVC070
      TEMPO 2602/2604 3SM BR BKN020
     FM260600 VRB04KT 5SM -SN SCT010 OVC020
     FM261200 VRB04KT 2SM -SN BR SCT005 OVC015
     FM261900 VRB04KT 4SM -RASN BR OVC020=



000
FTUS45 KMSO 252340
TAFBTM
TAF
KBTM 252340Z 2600/2624 34008KT 3/4SM -SN BR VV012
      TEMPO 2600/2604 2SM -SN BR BKN008 OVC015
     FM260800 VRB05KT 5SM BR VCSH BKN020 OVC050=



000
FTUS45 KMSO 252340
TAFSMN
TAF
KSMN 252340Z 2600/2624 35008KT 4SM -RA SCT005 OVC030
      AMD LTD TO CLD VIS AND WIND=



000
FTUS45 KMSO 252340
TAFMSO
TAF
KMSO 252340Z 2600/2624 32005KT 6SM -RA BR SCT003 OVC020
     FM260800 VRB04KT 3SM -RA BR SCT003 OVC020=



000
FTUS45 KMSO 252340
TAFGPI
TAF
KGPI 252340Z 2600/2624 17009KT 4SM BR VCSH BKN035 OVC070
     FM260600 VRB04KT 5SM -SN SCT010 OVC020
     FM261200 VRB04KT 2SM -SN BR SCT005 OVC015
     FM261900 VRB04KT 4SM -RASN BR OVC020=



000
FTUS45 KMSO 251736
TAFGPI
TAF
KGPI 251736Z 2518/2618 17009KT 6SM BR VCSH BKN035 OVC070
     FM260200 VRB04KT 5SM -SN SCT010 OVC020
     FM260700 VRB04KT 2SM -SN BR SCT005 OVC015=



000
FTUS45 KMSO 251736
TAFBTM
TAF
KBTM 251736Z 2518/2618 34008KT 2SM -SN BR SCT008 OVC015
      TEMPO 2518/2522 1SM -SN BR BKN008 OVC015
     FM260800 VRB05KT 5SM BR VCSH BKN020 OVC050=



000
FTUS45 KMSO 251736
TAFMSO
TAF
KMSO 251736Z 2518/2618 32005KT 3SM -RA BR SCT003 OVC020
     FM260000 VRB03KT 2SM -SNRA BR SCT003 OVC010
     FM261000 VRB04KT 3SM -RA BR SCT003 OVC010
     FM261300 VRB04KT 5SM BR VCSH SCT015 OVC030=



000
FTUS45 KMSO 251736
TAFSMN
TAF
KSMN 251736Z 2518/2618 35008KT 2SM -SN SCT005 BKN015 OVC025
     FM252100 VRB04KT 6SM -RA SCT015 OVC025
     FM260200 21008KT 3SM -SNRA BKN015 OVC025
      AMD LTD TO CLD VIS AND WIND=



000
FTUS45 KMSO 251538 AAB
TAFSMN
TAF AMD
KSMN 251538Z 2516/2612 35008KT 2SM -SN BKN015 OVC025
     FM260000 21005KT 6SM -RA SCT015 OVC025
     FM260600 21008KT P6SM SCT040 OVC120
      AMD LTD TO CLD VIS AND WIND=



000
FTUS45 KMSO 251449 AAA
TAFBTM
TAF AMD
KBTM 251449Z 2515/2612 28008KT 2SM -SN BR SCT010 OVC020
     FM260900 VRB05KT P6SM VCSH BKN030 OVC050=



000
FTUS45 KMSO 251413 AAB
TAFMSO
TAF AMD
KMSO 251413Z 2514/2612 32005KT 3SM -RASN BR SCT003 OVC010
      TEMPO 2514/2517 1SM -RASN BR BKN003 OVC010
     FM260000 VRB03KT 2SM -SN BR SCT010 OVC020=



000
FTUS45 KMSO 251325 AAA
TAFSMN
TAF AMD
KSMN 251325Z 2513/2612 35008KT 3SM -SN BKN015 OVC025
     FM251500 35008KT P6SM -RA OVC025
     FM260000 21005KT 6SM -RA SCT015 OVC025
     FM260600 21008KT P6SM SCT040 OVC120
      AMD LTD TO CLD VIS AND WIND=



000
FTUS45 KMSO 251223 AAA
TAFMSO
TAF AMD
KMSO 251223Z 2512/2612 30005KT 5SM -RASN BR OVC030
     FM251400 32005KT 6SM -RA BR SCT015 OVC025
     FM260000 VRB03KT 2SM -SN BR SCT010 OVC020=



000
FTUS45 KMSO 251138
TAFBTM
TAF
KBTM 251138Z 2512/2612 25010G15KT P6SM VCSH SCT025 OVC040
     FM251600 28008KT 2SM -SN BR SCT010 OVC020
     FM260900 VRB05KT P6SM VCSH BKN030 OVC050=



000
FTUS45 KMSO 251138
TAFGPI
TAF
KGPI 251138Z 2512/2612 17009KT P6SM VCSH BKN035 OVC070
     FM260200 VRB04KT 2SM -SN BR SCT010 OVC020=



000
FTUS45 KMSO 251138
TAFSMN
TAF
KSMN 251138Z 2512/2612 35008KT 6SM -SNRA SCT015 OVC025
     FM251400 35008KT P6SM -RA OVC025
     FM260000 21005KT 6SM -RA SCT015 OVC025
     FM260600 21008KT P6SM SCT040 OVC120
      AMD LTD TO CLD VIS AND WIND=



000
FTUS45 KMSO 251138
TAFMSO
TAF
KMSO 251138Z 2512/2612 VRB05KT P6SM VCSH BKN030 OVC040
     FM251400 32005KT 6SM -RA BR SCT015 OVC025
     FM260000 VRB03KT 2SM -SN BR SCT010 OVC020=



000
FTUS45 KMSO 250917 AAB
TAFMSO
TAF AMD
KMSO 250917Z 2509/2606 VRB05KT P6SM VCSH OVC045
     FM251300 VRB03KT 4SM -RASN BR SCT015 OVC025
     FM251500 32005KT 6SM -RA BR SCT015 OVC025=



000
FTUS45 KMSO 250824 AAA
TAFBTM
TAF AMD
KBTM 250824Z 2508/2606 25010G18KT P6SM VCSH SCT040 OVC060
     FM251200 27010KT 3SM -SN BKN015 OVC025=



000
FTUS45 KMSO 250747 AAA
TAFSMN
TAF AMD
KSMN 250747Z 2508/2606 20011G18KT 4SM -SN BR SCT015 OVC025
     FM251200 20008KT 6SM -RA BR OVC025
      AMD LTD TO CLD VIS AND WIND=



000
FTUS45 KMSO 250540
TAFGPI
TAF
KGPI 250540Z 2506/2606 17011KT 2SM -SN BR SCT005 BKN010 OVC020
     FM251700 VRB04KT P6SM VCSH BKN030 OVC050
     FM260300 VRB04KT 2SM -SN BR BKN010 OVC020=



000
FTUS45 KMSO 250540
TAFMSO
TAF
KMSO 250540Z 2506/2606 VRB03KT P6SM VCSH OVC060
     FM250900 VRB03KT 5SM -SN BR BKN015 OVC025
     FM251300 32005KT 6SM -RA BR BKN015 OVC025=



000
FTUS45 KMSO 250540
TAFSMN
TAF
KSMN 250540Z 2506/2606 VRB03KT P6SM BKN050 BKN080
     FM250900 22003KT 4SM -SN BR SCT015 OVC025
     FM251800 VRB03KT 5SM -RA BR BKN025 OVC050
      AMD LTD TO CLD VIS AND WIND=



000
FTUS45 KMSO 250540
TAFBTM
TAF
KBTM 250540Z 2506/2606 25010G18KT P6SM BKN050 OVC070
     FM250800 27010KT 3SM -SN BKN015 OVC025=



000
FTUS45 KMSO 250243 AAB
TAFGPI
TAF AMD
KGPI 250243Z 2503/2524 17011KT 2SM -SN BKN010 OVC020
     FM251200 VRB04KT 6SM BR VCSH OVC020=



000
FTUS45 KMSO 250207 AAA
TAFBTM
TAF AMD
KBTM 250207Z 2502/2524 23008KT P6SM BKN050 BKN070
     FM250900 26008KT 4SM -SN BKN015 OVC025=



000
FTUS45 KMSO 250206 AAB
TAFMSO
TAF AMD
KMSO 250206Z 2502/2524 VRB04KT P6SM VCSH BKN050 OVC070
     FM250600 13006KT 4SM -SN BKN015 OVC025
     FM251100 30005KT 6SM BR VCSH OVC025
     FM251800 33005KT 5SM -RA BR BKN015 OVC025=



000
FTUS45 KMSO 250204 AAA
TAFGPI
TAF AMD
KGPI 250204Z 2502/2524 17011KT P6SM VCSH BKN015 BKN040 OVC050
     FM250600 19007KT 2SM -SN BKN010 OVC015
     FM251200 VRB04KT 6SM BR VCSH OVC020=



000
FTUS45 KMSO 242330
TAFGPI
TAF
KGPI 242330Z 2500/2524 21011KT P6SM VCSH BKN040 OVC050
     FM250600 19007KT 2SM -SN SCT010 OVC015
     FM251200 VRB04KT 6SM BR VCSH OVC020=



000
FTUS45 KMSO 242330
TAFSMN
TAF
KSMN 242330Z 2500/2524 19004KT P6SM BKN050 BKN080
     FM250900 23008KT 4SM -SN SCT015 OVC025
     FM251800 VRB03KT 5SM -RA SCT020 OVC030
      AMD LTD TO CLD VIS AND WIND=



000
FTUS45 KMSO 242330
TAFBTM
TAF
KBTM 242330Z 2500/2524 29008KT P6SM BKN070
     FM250900 25008KT 4SM -SN SCT015 OVC025=



000
FTUS45 KMSO 242330
TAFMSO
TAF
KMSO 242330Z 2500/2524 27008KT P6SM VCSH BKN050 OVC070
     FM250600 14008KT 4SM -SN SCT015 OVC025
     FM251100 30005KT 6SM BR VCSH OVC025
     FM251800 33005KT 5SM -RA BR BKN015 OVC025=



000
FTUS45 KMSO 241737
TAFBTM
TAF
KBTM 241737Z 2418/2518 29010G18KT P6SM BKN070
     FM242300 30008KT P6SM BKN070
     FM250900 25008KT 4SM -SN SCT015 OVC025=



000
FTUS45 KMSO 241737
TAFGPI
TAF
KGPI 241737Z 2418/2518 19004KT P6SM BKN050
     FM250200 18005KT P6SM VCSH BKN040 OVC050
     FM250600 19007KT 2SM -SN SCT010 OVC015
     FM251200 VRB04KT 6SM BR VCSH OVC020=



000
FTUS45 KMSO 241737
TAFSMN
TAF
KSMN 241737Z 2418/2518 VRB05KT P6SM BKN050
     FM250900 25008KT 4SM -SN SCT015 OVC025
      AMD LTD TO CLD VIS AND WIND=



000
FTUS45 KMSO 241737
TAFMSO
TAF
KMSO 241737Z 2418/2518 29008KT P6SM BKN050
     FM250600 14008KT 4SM -SN SCT015 OVC025
     FM251000 30008KT 6SM BR VCSH OVC025=



000
FTUS45 KMSO 241512 AAA
TAFBTM
TAF AMD
KBTM 241512Z 2415/2512 30010KT P6SM VCSH SCT040 BKN060
     FM241800 29010KT P6SM BKN100
     FM250800 25008KT 4SM -SN SCT015 OVC025=



000
FTUS45 KMSO 241406 AAA
TAFSMN
TAF AMD
KSMN 241406Z 2414/2512 VRB05KT P6SM VCSH SCT030 OVC050
      TEMPO 2414/2416 1SM BR BKN001
     FM241600 VRB05KT P6SM BKN050
     FM250800 25008KT 4SM -SN SCT015 OVC025
      AMD LTD TO CLD VIS AND WIND=



000
FTUS45 KMSO 241134
TAFBTM
TAF
KBTM 241134Z 2412/2512 30010G16KT P6SM VCSH SCT050 OVC060
     FM241400 30010KT P6SM SCT040 BKN070
     FM250800 25008KT 4SM -SN SCT015 OVC025=



000
FTUS45 KMSO 241134
TAFSMN
TAF
KSMN 241134Z 2412/2512 VRB05KT P6SM VCSH SCT030 OVC050
     FM241600 VRB05KT P6SM BKN050
     FM250800 25008KT 4SM -SN SCT015 OVC025
      AMD LTD TO CLD VIS AND WIND=



000
FTUS45 KMSO 241134
TAFGPI
TAF
KGPI 241134Z 2412/2512 19003KT P6SM VCFG SCT005 BKN050
     FM241700 19003KT P6SM BKN050
     FM250200 18005KT P6SM VCSH BKN040 OVC050
     FM250600 19007KT 4SM -SN SCT015 OVC025=



000
FTUS45 KMSO 241134
TAFMSO
TAF
KMSO 241134Z 2412/2512 28006KT P6SM VCSH OVC060
     FM241500 26006KT P6SM BKN050
     FM250600 14008KT 4SM -SN SCT015 OVC025=



000
FTUS45 KMSO 240933 AAA
TAFSMN
TAF AMD
KSMN 240933Z 2410/2506 02005KT P6SM VCSH SCT030 OVC050
      TEMPO 2410/2412 3SM -SN BR SCT005 BKN015
     FM241500 VRB05KT P6SM BKN050
      AMD LTD TO CLD VIS AND WIND=



000
FTUS45 KMSO 240752 AAA
TAFBTM
TAF AMD
KBTM 240752Z 2408/2506 28007KT P6SM VCSH BKN040 OVC050
      TEMPO 2408/2410 30012G18KT 3SM -SN BR BKN015 OVC050
     FM241000 30007KT P6SM VCSH SCT040 BKN070
     FM241400 30007KT P6SM SCT040 SCT070=



000
FTUS45 KMSO 240538
TAFBTM
TAF
KBTM 240538Z 2406/2506 28007KT P6SM VCSH SCT040 BKN060
     FM241000 30006KT P6SM SCT040 BKN070=



000
FTUS45 KMSO 240538
TAFGPI
TAF
KGPI 240538Z 2406/2506 17006KT P6SM SCT040 OVC060
     FM241200 00000KT P6SM VCFG SCT005 BKN050
     FM241700 VRB03KT P6SM BKN050
     FM250500 19010KT P6SM VCSH BKN015 OVC040=



000
FTUS45 KMSO 240538
TAFSMN
TAF
KSMN 240538Z 2406/2506 02005KT P6SM VCSH BKN030 OVC070
      TEMPO 2406/2408 4SM -SN BR FEW005 BKN015
     FM241000 30007KT P6SM BKN090
      AMD LTD TO CLD VIS AND WIND=



000
FTUS45 KMSO 240538
TAFMSO
TAF
KMSO 240538Z 2406/2506 VRB03KT P6SM VCSH FEW015 BKN050
     FM241500 28004KT P6SM BKN050
     FM250500 19005KT P6SM VCSH BKN015 OVC040=



000
FTUS45 KMSO 240412 AAC
TAFSMN
TAF AMD
KSMN 240412Z 2404/2424 29010G20KT 2SM -SN BKN030 BKN070
     FM240600 VRB05KT P6SM VCSH BKN060
      AMD LTD TO CLD VIS AND WIND=



000
FTUS45 KMSO 240412 AAC
TAFSMN
TAF AMD
KSMN 240412Z 2404/2424 29010G20KT 2SM -SN BKN030 BKN070
     FM240600 VRB05KT P6SM VCSH BKN060
      AMD LTD TO CLD VIS AND WIND=



000
FTUS45 KMSO 240410 AAB
TAFSMN
TAF AMD
KSMN 240410Z 2404/2424 29010G20KT 4SM -SN BKN030 BKN070
     FM240600 VRB05KT P6SM VCSH BKN060
      AMD LTD TO CLD VIS AND WIND=



000
FTUS45 KMSO 240410 AAB
TAFSMN
TAF AMD
KSMN 240410Z 2404/2424 29010G20KT 4SM -SN BKN030 BKN070
     FM240600 VRB05KT P6SM VCSH BKN060
      AMD LTD TO CLD VIS AND WIND=



000
FTUS45 KMSO 240409 AAA
TAFBTM
TAF AMD
KBTM 240409Z 2404/2424 24011KT P6SM VCSH SCT040 BKN060
     FM241000 32006KT P6SM BKN030 OVC050=



000
FTUS45 KMSO 240409 AAA
TAFBTM
TAF AMD
KBTM 240409Z 2404/2424 24011KT P6SM VCSH SCT040 BKN060
     FM241000 32006KT P6SM BKN030 OVC050=



000
FTUS45 KMSO 240331 AAB
TAFMSO
TAF AMD
KMSO 240331Z 2404/2424 VRB03KT 6SM -SN BR FEW025 OVC035
     FM240600 31005KT 6SM BR VCSH SCT030 BKN040
     FM241600 25005KT P6SM BKN050=



000
FTUS45 KMSO 240331 AAB
TAFMSO
TAF AMD
KMSO 240331Z 2404/2424 VRB03KT 6SM -SN BR FEW025 OVC035
     FM240600 31005KT 6SM BR VCSH SCT030 BKN040
     FM241600 25005KT P6SM BKN050=



000
FTUS45 KMSO 240305 AAA
TAFSMN
TAF AMD
KSMN 240305Z 2403/2424 24007KT P6SM VCSH SCT050 BKN060
     FM240400 24008KT 4SM -SN BKN030 BKN050
     FM240600 VRB05KT P6SM VCSH BKN060
      AMD LTD TO CLD VIS AND WIND=



000
FTUS45 KMSO 240144 AAA
TAFGPI
TAF AMD
KGPI 240144Z 2402/2424 16011KT P6SM VCSH FEW009 SCT020 OVC040
     FM240600 19004KT P6SM VCSH SCT025 OVC050
     FM241700 21006KT P6SM OVC050=



000
FTUS45 KMSO 232326 CCA
TAFGPI
TAF COR
KGPI 232326Z 2400/2424 16011KT 2SM -SN BR SCT005 BKN015 OVC030
      TEMPO 2400/2402 1/2SM SN FG BKN005
     FM240400 18005KT 3SM -SHSN BR BKN025 OVC040
     FM240600 19004KT 6SM BR VCSH BKN025 OVC050
     FM241700 21006KT P6SM OVC050=



000
FTUS45 KMSO 232325
TAFGPI
TAF
KGPI 232325Z 2400/2424 17008KT 2SM -SN BR SCT005 BKN015 OVC030
      TEMPO 2400/2402 1/2SM SN FG BKN005
     FM240400 18005KT 3SM -SHSN BR BKN025 OVC040
     FM240600 19004KT 6SM BR VCSH BKN025 OVC050
     FM241700 21006KT P6SM OVC050=



000
FTUS45 KMSO 232325
TAFMSO
TAF
KMSO 232325Z 2400/2424 19008KT P6SM VCSH BKN040 OVC060
     FM240100 19009KT 2SM -SN BR BKN025 OVC035
     FM240600 31009KT 6SM BR VCSH SCT030 BKN040
     FM241600 25005KT P6SM BKN050=



000
FTUS45 KMSO 232325
TAFSMN
TAF
KSMN 232325Z 2400/2424 VRB05KT P6SM VCSH SCT030 BKN060 BKN080
     FM240200 25006KT 4SM -SN BKN030 BKN060
     FM240600 25006KT P6SM VCSH BKN060
      AMD LTD TO CLD VIS AND WIND=



000
FTUS45 KMSO 232325
TAFBTM
TAF
KBTM 232325Z 2400/2424 25010KT P6SM BKN050 OVC060
     FM240300 29010KT 1SM -SN BR BKN020 OVC030
     FM241000 32006KT P6SM BKN030 OVC050=



000
FTUS45 KMSO 232214 AAA
TAFBTM
TAF AMD
KBTM 232214Z 2322/2418 27011KT P6SM BKN050 OVC060
     FM240100 30010KT 6SM -SHSN SCT020 BKN030=



000
FTUS45 KMSO 232212 AAB
TAFGPI
TAF AMD
KGPI 232212Z 2322/2418 17008KT 2SM -SN BR FEW005 BKN015 OVC030
     FM240200 18005KT 4SM -SHSN BR SCT025 BKN040=



000
FTUS45 KMSO 232027 AAA
TAFGPI
TAF AMD
KGPI 232027Z 2320/2418 20007KT 3SM -SN BKN025 OVC040
     FM232300 20007KT 2SM -SN BKN015 OVC030
     FM240200 18005KT P6SM -SHSN SCT030 BKN040=



000
FTUS45 KMSO 231737
TAFMSO
TAF
KMSO 231737Z 2318/2418 33006KT P6SM VCSH OVC070
     FM232100 28007KT 6SM -SHSN BKN035 OVC050
     FM240000 24005KT 4SM -SN BKN025 OVC035
     FM240600 30010KT P6SM VCSH SCT030 BKN040=



000
FTUS45 KMSO 231737
TAFBTM
TAF
KBTM 231737Z 2318/2418 31012KT P6SM BKN050 OVC060
     FM240100 30010KT 6SM -SHSN SCT020 BKN030=



000
FTUS45 KMSO 231737
TAFGPI
TAF
KGPI 231737Z 2318/2418 20007KT P6SM VCSH BKN040 OVC060
     FM232300 20007KT 4SM -SN BKN015 OVC030
     FM240500 18005KT P6SM VCSH SCT030 BKN040=



000
FTUS45 KMSO 231737
TAFSMN
TAF
KSMN 231737Z 2318/2418 VRB04KT P6SM VCSH OVC060
     FM232300 21005KT P6SM -SHSN SCT030 BKN040
     FM240200 00000KT 4SM -SN BKN025 BKN035
      AMD LTD TO CLD VIS AND WIND=



    US Dept of Commerce
    National Oceanic and Atmospheric Administration
    National Weather Service
    1325 East West Highway
    Silver Spring, MD 20910
    Page Author: NWS Internet Services Team
Disclaimer
Information Quality
Credits
Glossary
Privacy Policy
Freedom of Information Act (FOIA)
About Us
Career Opportunities